Time;durP1;ratioP1;P1;durP2;ratioP2;P2;SDS_P1;SDS_P2;PMS_P1;PMS_P2;Temp;Humidity;BMP_temperature;BMP_pressure;BME280_temperature;BME280_humidity;BME280_pressure;Samples;Min_cycle;Max_cycle;Signal;HPM_P1;HPM_P2
2021/03/30 00:01:53;;;;;;;21.00;11.63;;;;;;;9.32;100.00;102969.00;5052438;28;20123;-68
2021/03/30 00:04:19;;;;;;;18.20;9.07;;;;;;;9.32;100.00;102974.47;5052258;28;20079;-68
2021/03/30 00:06:45;;;;;;;16.55;8.07;;;;;;;9.32;100.00;102974.47;5052227;28;20054;-66
2021/03/30 00:09:10;;;;;;;20.73;8.38;;;;;;;9.32;100.00;102979.06;5052157;28;20509;-68
2021/03/30 00:11:37;;;;;;;16.15;7.90;;;;;;;9.34;100.00;102972.41;5052125;28;20514;-65
2021/03/30 00:14:04;;;;;;;18.13;7.75;;;;;;;9.36;100.00;102970.34;5051896;28;20553;-68
2021/03/30 00:16:30;;;;;;;14.43;6.70;;;;;;;9.41;100.00;102971.69;5052141;28;20041;-70
2021/03/30 00:18:56;;;;;;;18.48;7.30;;;;;;;9.44;100.00;102965.88;5052021;28;20040;-69
2021/03/30 00:21:21;;;;;;;14.02;8.15;;;;;;;9.47;100.00;102976.41;5051844;28;20095;-68
2021/03/30 00:23:47;;;;;;;15.43;6.47;;;;;;;9.47;100.00;102965.50;5051921;28;20037;-67
2021/03/30 00:26:12;;;;;;;22.20;8.68;;;;;;;9.50;100.00;102954.22;5051890;28;20107;-70
2021/03/30 00:28:38;;;;;;;17.30;7.70;;;;;;;9.51;100.00;102956.75;5051610;28;20036;-69
2021/03/30 00:31:04;;;;;;;15.60;7.15;;;;;;;9.51;100.00;102955.91;5051798;28;20064;-67
2021/03/30 00:33:29;;;;;;;26.58;8.02;;;;;;;9.50;100.00;102948.75;5050602;28;20156;-70
2021/03/30 00:35:55;;;;;;;13.75;7.03;;;;;;;9.49;100.00;102945.19;5051379;28;20056;-68
2021/03/30 00:38:20;;;;;;;18.80;6.75;;;;;;;9.50;100.00;102946.03;5051609;28;20115;-69
2021/03/30 00:40:46;;;;;;;14.57;5.70;;;;;;;9.52;100.00;102949.41;5051670;28;20025;-68
2021/03/30 00:43:11;;;;;;;11.57;6.45;;;;;;;9.53;100.00;102937.47;5051298;28;20438;-68
2021/03/30 00:45:37;;;;;;;11.40;5.85;;;;;;;9.55;100.00;102936.28;5051299;28;20041;-65
2021/03/30 00:48:03;;;;;;;14.05;6.90;;;;;;;9.56;100.00;102932.50;5051470;28;20147;-67
2021/03/30 00:50:33;;;;;;;14.35;5.57;;;;;;;9.60;100.00;102938.44;5051311;28;20041;-67
2021/03/30 00:53:00;;;;;;;12.65;5.45;;;;;;;9.61;100.00;102935.53;5051365;28;20048;-67
2021/03/30 00:55:30;;;;;;;17.05;6.15;;;;;;;9.65;100.00;102931.38;5051425;28;20040;-65
2021/03/30 00:57:56;;;;;;;16.52;5.18;;;;;;;9.68;100.00;102935.63;5051045;28;20380;-69
2021/03/30 01:00:23;;;;;;;13.63;4.97;;;;;;;9.69;100.00;102931.88;5051358;28;20041;-67
2021/03/30 01:02:49;;;;;;;13.32;5.10;;;;;;;9.75;100.00;102939.34;5033614;28;20442;-66
2021/03/30 01:05:15;;;;;;;16.02;6.03;;;;;;;9.79;100.00;102932.47;5050942;28;20037;-69
2021/03/30 01:08:12;;;;;;;13.13;4.97;;;;;;;9.83;100.00;102933.78;5049857;28;20033;-68
2021/03/30 01:10:43;;;;;;;14.55;6.38;;;;;;;9.86;100.00;102933.41;5051069;28;20028;-69
2021/03/30 01:13:34;;;;;;;10.75;4.60;;;;;;;9.89;100.00;102933.06;5050862;28;20072;-67
2021/03/30 01:16:07;;;;;;;13.10;5.50;;;;;;;9.91;100.00;102930.97;5049808;28;20504;-67
2021/03/30 01:18:36;;;;;;;11.77;4.63;;;;;;;9.92;100.00;102927.22;5051113;28;20588;-68
2021/03/30 01:21:14;;;;;;;13.93;5.50;;;;;;;9.92;100.00;102932.69;5050821;28;20029;-68
2021/03/30 01:23:51;;;;;;;10.45;4.78;;;;;;;9.92;100.00;102927.22;5050903;28;20544;-71
2021/03/30 01:26:25;;;;;;;14.85;5.28;;;;;;;9.89;100.00;102938.50;5050856;28;20044;-67
2021/03/30 01:29:00;;;;;;;16.80;5.40;;;;;;;9.86;100.00;102927.94;5049401;28;20048;-70
2021/03/30 01:31:29;;;;;;;14.15;5.15;;;;;;;9.83;100.00;102927.47;5049479;28;20036;-67
2021/03/30 01:33:57;;;;;;;12.02;4.70;;;;;;;9.78;100.00;102925.31;5050704;28;20036;-67
2021/03/30 01:36:26;;;;;;;15.85;5.22;;;;;;;9.74;100.00;102918.53;5049107;28;20396;-67
2021/03/30 01:38:52;;;;;;;10.52;5.63;;;;;;;9.72;100.00;102927.91;5050757;28;20048;-68
2021/03/30 01:41:21;;;;;;;11.40;4.97;;;;;;;9.69;100.00;102920.94;5050721;28;20037;-67
2021/03/30 01:43:48;;;;;;;10.40;4.88;;;;;;;9.68;100.00;102917.38;5050260;28;20035;-67
2021/03/30 01:46:14;;;;;;;16.77;5.55;;;;;;;9.68;100.00;102925.56;5050511;28;20554;-67
2021/03/30 01:48:42;;;;;;;10.07;5.95;;;;;;;9.69;100.00;102918.22;5050666;28;20384;-71
2021/03/30 01:51:11;;;;;;;12.27;5.82;;;;;;;9.68;100.00;102908.34;5050448;28;20044;-67
2021/03/30 01:53:37;;;;;;;12.55;5.82;;;;;;;9.66;100.00;102913.97;5050560;28;20033;-69
2021/03/30 01:56:05;;;;;;;21.40;5.90;;;;;;;9.68;100.00;102920.09;5050699;28;20041;-69
2021/03/30 01:58:32;;;;;;;14.45;7.35;;;;;;;9.70;100.00;102913.59;5050314;28;20102;-69
2021/03/30 02:00:59;;;;;;;9.05;4.50;;;;;;;9.71;100.00;102912.56;5050581;28;20037;-68
2021/03/30 02:03:27;;;;;;;9.27;5.65;;;;;;;9.75;100.00;102912.03;5050502;28;20040;-68
2021/03/30 02:05:58;;;;;;;10.85;5.28;;;;;;;9.76;100.00;102905.53;5050360;28;20037;-67
2021/03/30 02:08:28;;;;;;;13.45;5.50;;;;;;;9.77;100.00;102901.78;5050197;28;20045;-67
2021/03/30 02:10:55;;;;;;;12.68;5.47;;;;;;;9.79;100.00;102901.59;5050262;28;20133;-67
2021/03/30 02:13:28;;;;;;;11.73;5.15;;;;;;;9.80;100.00;102901.41;5050168;28;20040;-68
2021/03/30 02:15:58;;;;;;;15.40;6.22;;;;;;;9.79;100.00;102899.72;5050538;28;20407;-69
2021/03/30 02:18:29;;;;;;;15.65;6.22;;;;;;;9.76;100.00;102894.63;5050286;28;20433;-69
2021/03/30 02:21:02;;;;;;;8.90;5.13;;;;;;;9.76;100.00;102885.59;5050404;28;20036;-69
2021/03/30 02:23:33;;;;;;;12.18;5.72;;;;;;;9.78;100.00;102887.09;5048938;28;20033;-69
2021/03/30 02:26:02;;;;;;;12.80;5.40;;;;;;;9.78;100.00;102881.63;5050242;28;20391;-68
2021/03/30 02:28:58;;;;;;;14.48;6.55;;;;;;;9.78;100.00;102878.91;5050312;28;20097;-67
2021/03/30 02:31:27;;;;;;;;;;;;;;;9.79;100.00;102882.47;5050552;28;20064;-67
2021/03/30 02:33:55;;;;;;;16.20;5.63;;;;;;;9.78;100.00;102876.19;5049910;28;19960;-72
2021/03/30 02:36:24;;;;;;;12.95;5.97;;;;;;;9.78;100.00;102888.97;5050172;28;20053;-70
2021/03/30 02:38:52;;;;;;;14.35;5.65;;;;;;;9.79;100.00;102877.88;5050151;28;20029;-66
2021/03/30 02:41:20;;;;;;;15.93;6.22;;;;;;;9.80;100.00;102871.38;5050100;28;20041;-67
2021/03/30 02:43:47;;;;;;;14.55;5.68;;;;;;;9.81;100.00;102873.06;5050122;28;20136;-67
2021/03/30 02:46:16;;;;;;;17.00;6.35;;;;;;;9.80;100.00;102870.53;5050029;28;20522;-69
2021/03/30 02:48:43;;;;;;;11.20;5.60;;;;;;;9.79;100.00;102872.41;5049888;28;20037;-69
2021/03/30 02:51:10;;;;;;;13.40;5.78;;;;;;;9.75;100.00;102865.66;5050048;28;20072;-68
2021/03/30 02:53:37;;;;;;;13.68;5.60;;;;;;;9.79;100.00;102869.69;5050067;28;20084;-67
2021/03/30 02:56:06;;;;;;;10.93;5.88;;;;;;;9.80;100.00;102874.09;5049982;28;20510;-69
2021/03/30 02:58:33;;;;;;;12.82;6.03;;;;;;;9.83;100.00;102873.72;5053582;28;20083;-68
2021/03/30 03:00:59;;;;;;;11.75;5.22;;;;;;;9.84;100.00;102864.50;5053596;28;20033;-70
2021/03/30 03:03:29;;;;;;;9.70;4.82;;;;;;;9.83;100.00;102864.69;5053490;28;20036;-69
2021/03/30 03:05:55;;;;;;;11.05;4.95;;;;;;;9.83;100.00;102867.41;5053375;28;20041;-67
2021/03/30 03:08:21;;;;;;;11.85;5.65;;;;;;;9.84;100.00;102867.22;5053353;28;20114;-68
2021/03/30 03:10:50;;;;;;;11.48;5.85;;;;;;;9.84;100.00;102859.03;5053003;28;20445;-65
2021/03/30 03:13:17;;;;;;;14.15;5.95;;;;;;;9.83;100.00;102857.34;5053193;28;20059;-68
2021/03/30 03:15:45;;;;;;;13.82;5.93;;;;;;;9.82;100.00;102852.94;5053295;28;20097;-70
2021/03/30 03:18:12;;;;;;;13.18;6.53;;;;;;;9.82;100.00;102850.19;5053123;28;20037;-66
2021/03/30 03:20:40;;;;;;;14.15;5.72;;;;;;;9.83;100.00;102843.69;5053110;28;20086;-70
2021/03/30 03:23:07;;;;;;;12.00;5.78;;;;;;;9.83;100.00;102840.97;5053051;28;20037;-68
2021/03/30 03:25:34;;;;;;;16.38;6.57;;;;;;;9.88;100.00;102843.97;5053010;28;20395;-67
2021/03/30 03:28:01;;;;;;;15.38;6.38;;;;;;;9.92;100.00;102834.41;5053077;28;20886;-67
2021/03/30 03:30:28;;;;;;;16.75;6.40;;;;;;;9.97;100.00;102836.56;5052998;28;20336;-68
2021/03/30 03:33:21;;;;;;;13.15;6.10;;;;;;;10.00;100.00;102829.88;5052799;28;20625;-67
2021/03/30 03:36:10;;;;;;;11.32;6.22;;;;;;;10.04;100.00;102833.91;5052770;28;20136;-69
2021/03/30 03:38:38;;;;;;;19.05;7.43;;;;;;;10.03;100.00;102824.84;5052806;28;20041;-70
2021/03/30 03:41:08;;;;;;;25.98;7.10;;;;;;;10.06;100.00;102829.09;5052809;28;20033;-70
2021/03/30 03:43:35;;;;;;;12.63;6.90;;;;;;;10.07;100.00;102817.16;5035509;28;20498;-68
2021/03/30 03:46:01;;;;;;;14.15;6.85;;;;;;;10.06;100.00;102818.16;5052655;28;20411;-70
2021/03/30 03:48:26;;;;;;;13.38;7.45;;;;;;;10.05;100.00;102817.31;5052550;28;20136;-68
2021/03/30 03:50:56;;;;;;;15.93;7.00;;;;;;;10.06;100.00;102818.16;5052476;28;20151;-69
2021/03/30 03:53:24;;;;;;;15.98;7.38;;;;;;;10.06;100.00;102819.00;5052675;28;20048;-70
2021/03/30 03:55:52;;;;;;;11.25;6.65;;;;;;;10.04;100.00;102826.56;5052438;28;20064;-69
2021/03/30 03:58:25;;;;;;;13.98;7.68;;;;;;;10.05;100.00;102821.94;5052432;28;20040;-68
2021/03/30 04:00:52;;;;;;;18.08;7.50;;;;;;;10.03;100.00;102807.63;5052518;28;20029;-68
2021/03/30 04:03:25;;;;;;;13.27;6.57;;;;;;;10.03;100.00;102804.91;5052076;28;20040;-69
2021/03/30 04:06:12;;;;;;;14.80;7.72;;;;;;;10.03;100.00;102818.56;5052491;28;20036;-67
2021/03/30 04:08:59;;;;;;;12.55;7.22;;;;;;;10.02;100.00;102812.25;5051904;28;20036;-67
2021/03/30 04:11:27;;;;;;;22.08;7.93;;;;;;;10.02;100.00;102804.06;5051946;28;20033;-70
2021/03/30 04:13:56;;;;;;;16.88;7.85;;;;;;;10.04;100.00;102801.13;5052040;28;20044;-66
2021/03/30 04:16:22;;;;;;;17.83;7.40;;;;;;;10.06;100.00;102797.16;5052302;28;20438;-69
2021/03/30 04:18:47;;;;;;;14.55;6.93;;;;;;;10.10;100.00;102794.94;5051946;28;20040;-68
2021/03/30 04:21:30;;;;;;;12.35;6.95;;;;;;;10.15;100.00;102789.72;5052165;28;20435;-65
2021/03/30 04:23:58;;;;;;;10.80;7.60;;;;;;;10.20;100.00;102785.38;5051939;28;20036;-69
2021/03/30 04:26:25;;;;;;;17.77;7.55;;;;;;;10.29;100.00;102783.44;5051774;28;20056;-67
2021/03/30 04:28:51;;;;;;;14.73;7.05;;;;;;;10.37;100.00;102793.38;5050590;28;20434;-68
2021/03/30 04:31:17;;;;;;;18.23;7.03;;;;;;;10.41;100.00;102795.53;5052012;28;20032;-68
2021/03/30 04:33:42;;;;;;;16.20;7.43;;;;;;;10.43;100.00;102788.00;5051671;28;20136;-69
2021/03/30 04:36:09;;;;;;;15.30;7.72;;;;;;;10.44;100.00;102788.84;5051461;28;20550;-67
2021/03/30 04:38:34;;;;;;;20.17;7.88;;;;;;;10.43;100.00;102798.94;5051760;28;20076;-69
2021/03/30 04:41:00;;;;;;;14.07;8.05;;;;;;;10.38;100.00;102797.78;5051475;28;20056;-67
2021/03/30 04:43:26;;;;;;;15.48;8.35;;;;;;;10.34;100.00;102791.88;5050291;28;20036;-69
2021/03/30 04:45:52;;;;;;;16.10;8.00;;;;;;;10.27;100.00;102789.09;5051796;28;20471;-70
2021/03/30 04:48:18;;;;;;;19.90;8.75;;;;;;;10.24;100.00;102791.34;5051362;28;20035;-69
2021/03/30 04:50:44;;;;;;;15.75;8.07;;;;;;;10.22;100.00;102796.13;5051284;28;20436;-69
2021/03/30 04:53:11;;;;;;;19.58;7.82;;;;;;;10.18;100.00;102789.34;5051560;28;20131;-68
2021/03/30 04:55:37;;;;;;;16.70;8.20;;;;;;;10.19;100.00;102802.81;5051401;28;20484;-67
2021/03/30 04:58:03;;;;;;;18.45;8.98;;;;;;;10.19;100.00;102791.03;5051459;28;20568;-66
2021/03/30 05:00:28;;;;;;;20.60;9.10;;;;;;;10.16;100.00;102796.88;5051400;28;20127;-69
2021/03/30 05:02:54;;;;;;;15.63;9.52;;;;;;;10.15;100.00;102801.50;5051250;28;20037;-66
2021/03/30 05:05:20;;;;;;;16.67;9.77;;;;;;;10.16;100.00;102796.88;5051555;28;20102;-67
2021/03/30 05:07:46;;;;;;;18.27;9.95;;;;;;;10.17;100.00;102810.34;5051224;28;20041;-67
2021/03/30 05:10:12;;;;;;;21.63;10.70;;;;;;;10.18;100.00;102803.00;5051126;28;20045;-68
2021/03/30 05:12:38;;;;;;;19.35;10.13;;;;;;;10.20;100.00;102806.38;5051160;28;20032;-70
2021/03/30 05:15:05;;;;;;;19.10;10.35;;;;;;;10.21;100.00;102805.38;5051303;28;20521;-70
2021/03/30 05:17:31;;;;;;;22.20;10.43;;;;;;;10.20;100.00;102804.50;5049740;28;20059;-67
2021/03/30 05:19:56;;;;;;;20.48;11.55;;;;;;;10.20;100.00;102803.66;5049168;28;20049;-68
2021/03/30 05:22:22;;;;;;;18.27;10.15;;;;;;;10.19;100.00;102796.50;5051382;28;20032;-66
2021/03/30 05:24:48;;;;;;;21.58;12.05;;;;;;;10.19;100.00;102794.59;5050961;28;20044;-67
2021/03/30 05:27:13;;;;;;;25.38;12.77;;;;;;;10.17;100.00;102806.75;5051264;28;20045;-69
2021/03/30 05:29:44;;;;;;;20.65;11.40;;;;;;;10.15;100.00;102811.59;5050982;28;20045;-69
2021/03/30 05:32:15;;;;;;;17.95;11.63;;;;;;;10.16;100.00;102805.94;5051221;28;20047;-68
2021/03/30 05:34:45;;;;;;;30.10;12.48;;;;;;;10.17;100.00;102820.41;5050908;28;20037;-68
2021/03/30 05:37:11;;;;;;;24.20;11.65;;;;;;;10.17;100.00;102809.50;5050916;28;20090;-68
2021/03/30 05:39:36;;;;;;;20.73;11.98;;;;;;;10.16;100.00;102818.72;5050842;28;20123;-68
2021/03/30 05:42:04;;;;;;;21.98;11.50;;;;;;;10.15;100.00;102817.03;5051177;28;20044;-69
2021/03/30 05:44:32;;;;;;;21.90;11.27;;;;;;;10.13;100.00;102816.38;5050994;28;20064;-69
2021/03/30 05:47:18;;;;;;;25.20;11.63;;;;;;;10.12;100.00;102815.53;5049451;28;20044;-67
2021/03/30 05:49:45;;;;;;;22.60;11.82;;;;;;;10.11;100.00;102819.31;5050831;28;20127;-67
2021/03/30 05:52:20;;;;;;;26.15;12.63;;;;;;;10.10;100.00;102814.03;5050793;28;20037;-67
2021/03/30 05:54:47;;;;;;;24.58;13.48;;;;;;;10.10;100.00;102808.59;5050772;28;20079;-68
2021/03/30 05:57:16;;;;;;;25.10;11.82;;;;;;;10.10;100.00;102816.78;5050738;28;20032;-69
2021/03/30 05:59:45;;;;;;;25.13;12.10;;;;;;;10.09;100.00;102812.34;5050818;28;20044;-67
2021/03/30 06:02:19;;;;;;;23.98;12.52;;;;;;;10.07;100.00;102817.16;5050592;28;20035;-67
2021/03/30 06:04:47;;;;;;;24.05;12.50;;;;;;;10.06;100.00;102819.00;5050748;28;20029;-69
2021/03/30 06:07:13;;;;;;;22.15;12.85;;;;;;;10.06;100.00;102819.00;5051066;28;20039;-71
2021/03/30 06:09:42;;;;;;;25.85;13.13;;;;;;;10.06;100.00;102820.91;5050321;28;20128;-67
2021/03/30 06:12:11;;;;;;;30.80;13.40;;;;;;;10.04;100.00;102820.25;5050616;28;20033;-67
2021/03/30 06:14:45;;;;;;;24.45;12.88;;;;;;;10.03;100.00;102824.84;5050536;28;20079;-66
2021/03/30 06:17:15;;;;;;;29.80;14.00;;;;;;;10.01;100.00;102807.81;5050406;28;20065;-68
2021/03/30 06:19:57;;;;;;;34.03;14.93;;;;;;;10.02;100.00;102816.88;5050211;28;20031;-69
2021/03/30 06:22:26;;;;;;;29.85;14.68;;;;;;;10.01;100.00;102810.56;5048929;28;20033;-70
2021/03/30 06:24:52;;;;;;;26.25;14.10;;;;;;;10.01;100.00;102817.91;5050116;28;20029;-70
2021/03/30 06:27:29;;;;;;;28.52;14.02;;;;;;;10.01;100.00;102820.63;5049043;28;20037;-68
2021/03/30 06:29:58;;;;;;;30.58;14.27;;;;;;;10.01;100.00;102817.91;5050289;28;20037;-69
2021/03/30 06:32:25;;;;;;;22.73;13.80;;;;;;;10.01;100.00;102820.63;5053970;28;20029;-67
2021/03/30 06:34:57;;;;;;;34.03;15.98;;;;;;;10.01;100.00;102816.03;5053808;28;20053;-67
2021/03/30 06:37:35;;;;;;;28.63;14.93;;;;;;;10.00;100.00;102821.66;5053993;28;20040;-70
2021/03/30 06:40:10;;;;;;;36.15;15.52;;;;;;;9.98;100.00;102819.97;5034033;28;20061;-68
2021/03/30 06:45:17;;;;;;;30.23;14.07;;;;;;;10.01;100.00;102826.09;5033841;28;20164;-69
2021/03/30 06:47:45;;;;;;;25.02;14.20;;;;;;;10.00;100.00;102829.88;5034057;28;20112;-69
2021/03/30 06:50:38;;;;;;;36.00;15.70;;;;;;;10.02;100.00;102833.25;5033795;28;20067;-67
2021/03/30 06:53:11;;;;;;;29.80;15.77;;;;;;;10.04;100.00;102836.63;5033252;28;20108;-67
2021/03/30 06:55:46;;;;;;;33.72;16.83;;;;;;;10.07;100.00;102839.00;5032517;28;20037;-68
2021/03/30 06:58:14;;;;;;;34.05;14.98;;;;;;;10.10;100.00;102847.66;5034126;28;20175;-67
2021/03/30 07:00:40;;;;;;;35.20;16.83;;;;;;;10.13;100.00;102841.81;5033574;28;20046;-65
2021/03/30 07:03:08;;;;;;;33.95;17.38;;;;;;;10.16;100.00;102835.97;5032575;28;20045;-67
2021/03/30 07:05:38;;;;;;;27.67;16.45;;;;;;;10.22;100.00;102839.84;5033698;28;20045;-67
2021/03/30 07:08:05;;;;;;;35.45;17.02;;;;;;;10.27;100.00;102843.72;5033399;28;20129;-69
2021/03/30 07:10:34;;;;;;;29.95;16.23;;;;;;;10.34;100.00;102849.25;5032102;28;20566;-67
2021/03/30 07:12:59;;;;;;;30.15;15.00;;;;;;;10.39;100.00;102846.78;5033358;28;20037;-69
2021/03/30 07:15:26;;;;;;;32.28;15.93;;;;;;;10.44;100.00;102844.34;5033308;28;20115;-68
2021/03/30 07:18:03;;;;;;;29.30;15.55;;;;;;;10.48;100.00;102844.78;5033503;28;20120;-68
2021/03/30 07:20:32;;;;;;;31.63;15.63;;;;;;;10.52;100.00;102849.66;5033406;28;20079;-69
2021/03/30 07:23:02;;;;;;;34.50;16.88;;;;;;;10.57;100.00;102849.09;5031721;28;20427;-68
2021/03/30 07:25:28;;;;;;;35.38;16.55;;;;;;;10.61;100.00;102844.94;5033146;28;20044;-68
2021/03/30 07:28:01;;;;;;;32.35;15.05;;;;;;;10.67;100.00;102838.69;5033124;28;20044;-67
2021/03/30 07:30:28;;;;;;;32.30;15.70;;;;;;;10.73;100.00;102832.44;5032961;28;20107;-68
2021/03/30 07:33:28;;;;;;;36.13;17.20;;;;;;;10.84;100.00;102828.34;5033107;28;20076;-70
2021/03/30 07:35:57;;;;;;;29.77;15.77;;;;;;;10.94;100.00;102839.81;5032985;28;20499;-69
2021/03/30 07:38:29;;;;;;;34.60;16.38;;;;;;;11.11;100.00;102834.94;5032896;28;20041;-69
2021/03/30 07:40:55;;;;;;;40.63;16.25;;;;;;;11.27;100.00;102828.28;5032850;28;20040;-69
2021/03/30 07:43:27;;;;;;;33.60;16.20;;;;;;;11.48;100.00;102836.50;5032096;28;20040;-65
2021/03/30 07:45:57;;;;;;;32.60;15.25;;;;;;;11.55;100.00;102839.25;5032637;28;20033;-70
2021/03/30 07:48:25;;;;;;;33.25;15.70;;;;;;;11.71;100.00;102839.78;5032785;28;20036;-70
2021/03/30 07:53:48;;;;;;;27.50;13.20;;;;;;;11.94;100.00;102835.94;5032571;28;20056;-67
2021/03/30 07:56:23;;;;;;;27.27;13.85;;;;;;;12.06;100.00;102832.44;5041062;28;20039;-69
2021/03/30 07:58:50;;;;;;;25.20;15.30;;;;;;;12.06;100.00;102828.84;5042551;28;20549;-67
2021/03/30 08:01:20;;;;;;;27.63;14.90;;;;;;;12.03;100.00;102826.53;5052288;28;20045;-69
2021/03/30 08:03:47;;;;;;;21.65;13.43;;;;;;;12.09;100.00;102820.22;5034728;28;20030;-66
2021/03/30 08:06:23;;;;;;;21.25;13.32;;;;;;;12.13;100.00;102824.22;5032639;28;20452;-67
2021/03/30 08:09:06;;;;;;;32.40;14.02;;;;;;;12.17;100.00;102817.31;5032488;28;20083;-68
2021/03/30 08:11:41;;;;;;;21.80;12.60;;;;;;;12.24;100.00;102820.06;5036113;28;20041;-65
2021/03/30 08:14:37;;;;;;;27.73;12.90;;;;;;;12.31;100.00;102821.78;5033213;28;20463;-69
2021/03/30 08:17:05;;;;;;;28.38;13.02;;;;;;;12.43;100.00;102823.94;5045266;28;20450;-66
2021/03/30 08:19:31;;;;;;;27.55;12.45;;;;;;;12.55;100.00;102825.03;5053523;28;20052;-68
2021/03/30 08:22:02;;;;;;;27.35;12.45;;;;;;;12.66;100.00;102822.50;5051156;28;20045;-69
2021/03/30 08:24:48;;;;;;;29.80;13.02;;;;;;;12.80;100.00;102823.38;5051813;28;20039;-65
2021/03/30 08:27:32;;;;;;;19.85;11.45;;;;;;;12.94;100.00;102816.88;5049631;28;20064;-64
2021/03/30 08:29:59;;;;;;;22.45;11.50;;;;;;;13.07;100.00;102820.69;5046806;28;20033;-64
2021/03/30 08:32:28;;;;;;;28.63;10.68;;;;;;;13.18;100.00;102822.81;5040709;28;20041;-66
2021/03/30 08:34:54;;;;;;;23.52;10.82;;;;;;;13.29;100.00;102819.44;5050538;28;20673;-65
2021/03/30 08:37:20;;;;;;;19.98;11.02;;;;;;;13.39;100.00;102819.88;5050666;28;20123;-66
2021/03/30 08:39:46;;;;;;;23.42;11.35;;;;;;;13.49;100.00;102823.00;5046543;28;20036;-67
2021/03/30 08:42:14;;;;;;;21.20;10.68;;;;;;;13.60;100.00;102820.69;5045644;28;20033;-66
2021/03/30 08:44:56;;;;;;;21.25;10.43;;;;;;;13.71;100.00;102826.38;5037254;28;20403;-67
2021/03/30 08:47:45;;;;;;;17.02;10.20;;;;;;;13.81;100.00;102817.66;5041684;28;20032;-67
2021/03/30 08:50:14;;;;;;;22.73;9.85;;;;;;;13.91;100.00;102831.81;5050517;28;20047;-64
2021/03/30 08:52:40;;;;;;;20.58;10.63;;;;;;;13.99;100.00;102831.56;5042155;28;20043;-66
2021/03/30 08:55:09;;;;;;;22.15;10.23;;;;;;;14.04;100.00;102829.00;5059071;28;20036;-67
2021/03/30 08:57:37;;;;;;;20.88;10.05;;;;;;;14.09;100.00;102831.97;5056306;28;20037;-67
2021/03/30 09:00:11;;;;;;;21.77;10.15;;;;;;;14.17;100.00;102833.59;5047725;28;20078;-62
2021/03/30 09:02:37;;;;;;;22.65;10.38;;;;;;;14.23;100.00;102821.75;5047427;28;20132;-67
2021/03/30 09:05:13;;;;;;;17.90;9.88;;;;;;;14.31;100.00;102831.66;5044701;28;20123;-67
2021/03/30 09:07:49;;;;;;;17.65;9.65;;;;;;;14.37;100.00;102839.00;5044215;28;20518;-65
2021/03/30 09:10:16;;;;;;;16.23;10.02;;;;;;;14.45;100.00;102825.91;5046858;28;20040;-66
2021/03/30 09:12:43;;;;;;;18.40;9.95;;;;;;;14.56;100.00;102837.25;5042687;28;20029;-66
2021/03/30 09:15:11;;;;;;;18.40;9.93;;;;;;;14.65;100.00;102825.78;5046500;28;20482;-65
2021/03/30 09:18:00;;;;;;;17.13;9.75;;;;;;;14.79;100.00;102832.06;5041454;28;20516;-67
2021/03/30 09:20:33;;;;;;;21.73;9.60;;;;;;;14.90;100.00;102828.56;5050516;28;20037;-67
2021/03/30 09:23:03;;;;;;;17.65;9.27;;;;;;;14.99;100.00;102820.91;5050664;28;20040;-66
2021/03/30 09:28:01;;;;;;;16.80;8.32;;;;;;;15.22;100.00;102818.38;5050611;28;20071;-68
2021/03/30 09:30:28;;;;;;;20.52;9.93;;;;;;;15.30;100.00;102815.34;5045962;28;20065;-65
2021/03/30 09:32:56;;;;;;;17.73;9.45;;;;;;;15.42;100.00;102814.59;5046227;28;20033;-67
2021/03/30 09:35:25;;;;;;;13.48;8.93;;;;;;;15.50;100.00;102806.06;5050075;28;20485;-65
2021/03/30 09:38:01;;;;;;;15.95;8.50;;;;;;;15.59;100.00;102818.47;5049304;28;20071;-67
2021/03/30 09:40:35;;;;;;;19.80;8.85;;;;;;;15.65;100.00;102815.66;5050514;28;20067;-67
2021/03/30 09:43:04;;;;;;;17.15;8.82;;;;;;;15.78;100.00;102820.19;5050496;28;20029;-65
2021/03/30 09:45:32;;;;;;;15.82;7.90;;;;;;;15.86;100.00;102822.66;5050625;28;20048;-68
2021/03/30 09:47:59;;;;;;;22.58;8.75;;;;;;;15.96;100.00;102817.41;5050841;28;20041;-68
2021/03/30 09:50:27;;;;;;;12.90;7.88;;;;;;;16.07;100.00;102821.34;5050487;28;20495;-67
2021/03/30 09:52:53;;;;;;;16.73;8.27;;;;;;;16.17;100.00;102818.03;5050417;28;20032;-67
2021/03/30 09:55:32;;;;;;;18.27;9.05;;;;;;;16.28;100.00;102815.31;5050550;28;20036;-70
2021/03/30 09:58:03;;;;;;;17.80;7.85;;;;;;;16.38;100.00;102813.94;5050354;28;20082;-66
2021/03/30 10:00:31;;;;;;;18.08;8.40;;;;;;;16.51;100.00;102816.53;5050595;28;20036;-68
2021/03/30 10:02:57;;;;;;;16.55;7.45;;;;;;;16.59;100.00;102811.50;5050649;28;20039;-67
2021/03/30 10:05:23;;;;;;;12.30;6.68;;;;;;;16.70;100.00;102809.06;5050961;28;20124;-69
2021/03/30 10:07:49;;;;;;;15.82;7.47;;;;;;;16.83;100.00;102806.09;5054484;28;20132;-68
2021/03/30 10:10:15;;;;;;;14.32;7.03;;;;;;;16.96;100.00;102803.13;5054372;28;20529;-69
2021/03/30 10:12:54;;;;;;;13.52;6.90;;;;;;;17.06;100.00;102795.09;5054220;28;20043;-69
2021/03/30 10:15:35;;;;;;;16.00;7.63;;;;;;;17.20;100.00;102790.22;5054399;28;20064;-69
2021/03/30 10:18:02;;;;;;;14.05;7.13;;;;;;;17.32;100.00;102793.78;5054503;28;20222;-69
2021/03/30 10:20:28;;;;;;;13.43;6.43;;;;;;;17.42;100.00;102793.22;5054312;28;20040;-68
2021/03/30 10:22:53;;;;;;;11.43;6.32;;;;;;;17.50;100.00;102787.31;5054078;28;20399;-68
2021/03/30 10:25:21;;;;;;;14.80;6.72;;;;;;;17.59;100.00;102788.63;5054098;28;20044;-69
2021/03/30 10:27:52;;;;;;;15.63;6.85;;;;;;;17.69;100.00;102783.34;5054032;28;20086;-69
2021/03/30 10:30:27;;;;;;;12.02;6.35;;;;;;;17.82;100.00;102782.25;5054293;28;20040;-68
2021/03/30 10:32:55;;;;;;;13.35;6.65;;;;;;;17.93;100.00;102788.84;5054195;28;20135;-70
2021/03/30 10:35:21;;;;;;;12.18;5.65;;;;;;;18.06;100.00;102788.59;5052462;28;20037;-69
2021/03/30 10:37:47;;;;;;;12.30;5.57;;;;;;;18.15;100.00;102792.63;5054267;28;20124;-68
2021/03/30 10:40:13;;;;;;;14.68;5.78;;;;;;;18.22;100.00;102790.56;5053802;28;20423;-69
2021/03/30 10:42:40;;;;;;;9.82;5.32;;;;;;;18.31;100.00;102780.78;5053767;28;20124;-67
2021/03/30 10:45:09;;;;;;;9.40;5.05;;;;;;;18.38;100.00;102781.47;5053851;28;20041;-69
2021/03/30 10:47:37;;;;;;;13.32;5.55;;;;;;;18.47;99.10;102772.78;5053743;28;20037;-70
2021/03/30 10:50:13;;;;;;;14.40;5.75;;;;;;;18.57;100.00;102771.03;5054040;28;20037;-69
2021/03/30 10:52:39;;;;;;;9.50;5.00;;;;;;;18.68;100.00;102759.09;5053587;28;20033;-68
2021/03/30 10:55:16;;;;;;;13.68;5.82;;;;;;;18.83;100.00;102766.81;5053765;28;20048;-67
2021/03/30 10:57:45;;;;;;;11.98;5.80;;;;;;;18.95;100.00;102756.50;5053445;28;20035;-70
2021/03/30 11:00:12;;;;;;;9.05;5.53;;;;;;;19.10;100.00;102755.91;5052117;28;20029;-67
2021/03/30 11:02:37;;;;;;;10.23;4.88;;;;;;;19.26;99.69;102755.06;5053389;28;20120;-68
2021/03/30 11:05:05;;;;;;;12.48;5.25;;;;;;;19.40;100.00;102749.97;5053262;28;20120;-66
2021/03/30 11:07:30;;;;;;;12.02;5.35;;;;;;;19.53;100.00;102752.38;5053466;28;20386;-68
2021/03/30 11:09:56;;;;;;;11.63;4.85;;;;;;;19.67;100.00;102749.28;5053461;28;20033;-69
2021/03/30 11:12:21;;;;;;;10.00;5.60;;;;;;;19.79;97.14;102747.25;5053264;28;20547;-68
2021/03/30 11:14:47;;;;;;;12.15;5.18;;;;;;;19.90;98.87;102742.63;5053288;28;20057;-69
2021/03/30 11:17:13;;;;;;;12.75;5.75;;;;;;;19.99;93.97;102741.09;5052335;28;20043;-68
2021/03/30 11:19:38;;;;;;;11.50;5.18;;;;;;;20.09;94.36;102736.47;5053094;28;20485;-67
2021/03/30 11:22:05;;;;;;;9.52;5.03;;;;;;;20.18;94.89;102729.38;5053338;28;20041;-69
2021/03/30 11:24:36;;;;;;;11.48;4.60;;;;;;;20.28;93.29;102733.34;5053264;28;20086;-68
2021/03/30 11:27:02;;;;;;;13.93;5.30;;;;;;;20.40;92.02;102725.72;5053341;28;20127;-69
2021/03/30 11:34:41;;;;;;;10.40;4.80;;;;;;;20.63;79.61;102713.47;5047697;28;20071;-68